Pajaro, California
Current Conditions -  °F | °C
As of 4:06 PM on Monday 20 Oct 2014 (Local Time) from KWVI Reporting Station
Overcast Overcast  
Wind Chill: 69°   Ceiling: 3400
Heat Index: 69°   Visibility: 10mi
Dew Point: 56°   Wind: 5mph
Humidity: 63%   Direction: 350°N
Pressure: 29.97"   Gusts: NA
Location:  36.9274°N, 121.747°W
Report Text: KWVI 202306Z AUTO 35004KT 10SM SCT026 OVC034 21/13 A2997 RMK AO2 T02060133
Loading
Personal Weather Stations






























Interactive Weather Map
Tropical Storm Tracking
New forecast layout! Learn more

10-Day Weather Forecast

Advertisements
Track Severe Weather on mobile